Aeroporto :
LOGIN :

Iscrizione | Disclaimer

   EN    FR    IT 

 










Sommario :    VFR   VFR Marginale   IFR   IFR Intensivo   IFR Molto Intensivo
Visibilità : 
Base nubi : 
>= 8 km
>= 3000ft
5 / 8 km
1000 / 3000 ft
1500m / 5 km
500 / 1000 ft
800 / 1500m
200 / 500 ft
< 800m
< 200 ft
Simboli :   Temporali  Nebbia  Neve Forte  Precipitazioni Forti  Vento > 20 kt
SIGMETs :   Varie  Temporali  Ghiacco  Turbolenza  Onda orograficha  Ceneri Vulcaniche






- Altitudine del aeroporto : 659 ft
- Codice IATA : LGG


EBLG - Liège

ULTIMO METAR :
  • 041350Z 05008KT 030V100 9999 BKN010 00/M02 Q1014 NOSIG

METARs OBSOLETI :
  • 041320Z 04009KT 9999 BKN010 00/M02 Q1014 NOSIG
  • 041250Z 05009KT 9999 BKN011 00/M02 Q1014 NOSIG
  • 041220Z 05009KT 9999 BKN011 00/M02 Q1014 NOSIG
  • 041150Z 05008KT 9999 BKN011 00/M02 Q1015 NOSIG
  • 041120Z 05008KT 9999 BKN011 00/M02 Q1015 NOSIG

TAF TAF EBLG
Valido dal 04 a 12 ore il 05 a 18 ore UTC


041106Z 0412/0518 05006KT 9999 BKN012
TEMPO 0412/0418 SCT013 BKN018
TEMPO 0421/0518 4000 -SN BR BKN005
PROB40 0502/0518 0800 -SN FG SCT002 OVC003



MetMap, La meteo Aeronautica in un colpo d'occhio ! - Copyright ORBIFLY Dicembre 2007 - Disclaimer

ORBIFLY MET'MAP TEAM :

Programmazione e sviluppo : Alexandra Zaïnal
Concezione : Baudouin d'Aumeries
Supporto tecnico e logistico : Manuel Goepfert
Aiuto : Marc-Olivier Méhu
Aiuto per la traduzione : Arnaldo La Scala




FONTI E CREDITI :

   NOAA